createdAt,value
2023-02-09T00:00:51.076Z,1003.85
2023-02-09T00:01:51.055Z,1003.87
2023-02-09T00:02:51.058Z,1003.83
2023-02-09T00:03:51.116Z,1003.79
2023-02-09T00:04:51.018Z,1003.69
2023-02-09T00:05:51.059Z,1003.81
2023-02-09T00:06:50.993Z,1003.76
2023-02-09T00:07:51.009Z,1003.80
2023-02-09T00:08:50.999Z,1003.82
2023-02-09T00:09:50.964Z,1003.81
2023-02-09T00:10:50.988Z,1003.76
2023-02-09T00:11:50.932Z,1003.76
2023-02-09T00:12:50.931Z,1003.74
2023-02-09T00:13:51.024Z,1003.83
2023-02-09T00:14:50.913Z,1003.80
2023-02-09T00:15:50.917Z,1003.79
2023-02-09T00:16:51.035Z,1003.78
2023-02-09T00:17:51.027Z,1003.71
2023-02-09T00:18:50.873Z,1003.71
2023-02-09T00:19:50.883Z,1003.74
2023-02-09T00:20:50.868Z,1003.68
2023-02-09T00:21:50.843Z,1003.66
2023-02-09T00:22:50.878Z,1003.65
2023-02-09T00:23:50.833Z,1003.71
2023-02-09T00:24:50.839Z,1003.74
2023-02-09T00:25:50.880Z,1003.74
2023-02-09T00:26:50.807Z,1003.76
2023-02-09T00:27:50.842Z,1003.78
2023-02-09T00:28:50.762Z,1003.73
2023-02-09T00:29:50.825Z,1003.71
2023-02-09T00:30:50.849Z,1003.74
2023-02-09T00:31:50.827Z,1003.80
2023-02-09T00:32:50.962Z,1003.76
2023-02-09T00:33:50.822Z,1003.75
2023-02-09T00:34:50.747Z,1003.78
2023-02-09T00:35:50.724Z,1003.84
2023-02-09T00:36:50.709Z,1003.77
2023-02-09T00:37:50.717Z,1003.76
2023-02-09T00:38:50.692Z,1003.74
2023-02-09T00:39:50.686Z,1003.77
2023-02-09T00:40:50.730Z,1003.71
2023-02-09T00:41:50.638Z,1003.77
2023-02-09T00:42:50.663Z,1003.76
2023-02-09T00:43:50.616Z,1003.81
2023-02-09T00:44:50.637Z,1003.81
2023-02-09T00:45:50.660Z,1003.75
2023-02-09T00:46:50.593Z,1003.80
2023-02-09T00:47:50.613Z,1003.75
2023-02-09T00:48:50.598Z,1003.76
2023-02-09T00:49:50.587Z,1003.78
2023-02-09T00:50:50.553Z,1003.77
2023-02-09T00:51:50.557Z,1003.75
2023-02-09T00:52:50.572Z,1003.82
2023-02-09T00:53:50.589Z,1003.79
2023-02-09T00:54:50.521Z,1003.81
2023-02-09T00:55:50.516Z,1003.72
2023-02-09T00:56:50.498Z,1003.71
2023-02-09T00:57:50.495Z,1003.76
2023-02-09T00:58:50.501Z,1003.79
2023-02-09T00:59:50.449Z,1003.77
2023-02-09T01:00:50.510Z,1003.78
2023-02-09T01:01:50.539Z,1003.77
2023-02-09T01:02:50.439Z,1003.74
2023-02-09T01:03:50.432Z,1003.75
2023-02-09T01:04:50.420Z,1003.72
2023-02-09T01:05:50.459Z,1003.74
2023-02-09T01:06:50.401Z,1003.74
2023-02-09T01:07:50.412Z,1003.77
2023-02-09T01:08:50.358Z,1003.77
2023-02-09T01:09:50.387Z,1003.77
2023-02-09T01:10:50.331Z,1003.76
2023-02-09T01:11:50.343Z,1003.72
2023-02-09T01:12:50.437Z,1003.78
2023-02-09T01:13:50.317Z,1003.79
2023-02-09T01:14:50.295Z,1003.74
2023-02-09T01:15:50.304Z,1003.79
2023-02-09T01:16:50.393Z,1003.78
2023-02-09T01:17:50.293Z,1003.81
2023-02-09T01:18:50.276Z,1003.74
2023-02-09T01:19:50.297Z,1003.75
2023-02-09T01:20:50.376Z,1003.80
2023-02-09T01:21:50.250Z,1003.74
2023-02-09T01:22:50.233Z,1003.73
2023-02-09T01:23:50.285Z,1003.69
2023-02-09T01:24:50.213Z,1003.71
2023-02-09T01:25:50.221Z,1003.76
2023-02-09T01:26:50.171Z,1003.73
2023-02-09T01:27:50.268Z,1003.77
2023-02-09T01:28:50.235Z,1003.82
2023-02-09T01:29:50.146Z,1003.75
2023-02-09T01:30:50.324Z,1003.79
2023-02-09T01:31:50.334Z,1003.73
2023-02-09T01:32:50.140Z,1003.71
2023-02-09T01:33:50.101Z,1003.80
2023-02-09T01:34:50.214Z,1003.81
2023-02-09T01:35:50.104Z,1003.76
2023-02-09T01:36:50.099Z,1003.80
2023-02-09T01:37:50.127Z,1003.78
2023-02-09T01:38:50.093Z,1003.79
2023-02-09T01:39:50.062Z,1003.74
2023-02-09T01:40:50.056Z,1003.74
2023-02-09T01:41:50.062Z,1003.78
2023-02-09T01:42:50.035Z,1003.76
2023-02-09T01:43:50.032Z,1003.74
2023-02-09T01:44:50.059Z,1003.82
2023-02-09T01:45:50.134Z,1003.76
2023-02-09T01:46:49.982Z,1003.82
2023-02-09T01:47:49.975Z,1003.84
2023-02-09T01:48:50.188Z,1003.81
2023-02-09T01:49:49.985Z,1003.78
2023-02-09T01:50:49.946Z,1003.72
2023-02-09T01:51:49.945Z,1003.71
2023-02-09T01:52:49.935Z,1003.66
2023-02-09T01:53:49.980Z,1003.66
2023-02-09T01:54:49.908Z,1003.70
2023-02-09T01:55:49.937Z,1003.76
2023-02-09T01:56:49.897Z,1003.68
2023-02-09T01:57:49.908Z,1003.64
2023-02-09T01:58:49.881Z,1003.71
2023-02-09T01:59:49.902Z,1003.68
2023-02-09T02:00:49.844Z,1003.64
2023-02-09T02:01:49.882Z,1003.66
2023-02-09T02:02:49.943Z,1003.67
2023-02-09T02:03:49.827Z,1003.62
2023-02-09T02:04:49.841Z,1003.64
2023-02-09T02:05:49.825Z,1003.63
2023-02-09T02:06:49.790Z,1003.63
2023-02-09T02:07:49.798Z,1003.58
2023-02-09T02:08:49.786Z,1003.60
2023-02-09T02:09:49.762Z,1003.62
2023-02-09T02:10:49.732Z,1003.58
2023-02-09T02:11:49.735Z,1003.59
2023-02-09T02:12:49.726Z,1003.56
2023-02-09T02:13:49.702Z,1003.56
2023-02-09T02:14:49.705Z,1003.56
2023-02-09T02:15:49.735Z,1003.59
2023-02-09T02:16:49.696Z,1003.53
2023-02-09T02:17:49.690Z,1003.55
2023-02-09T02:18:49.654Z,1003.52
2023-02-09T02:19:49.654Z,1003.53
2023-02-09T02:20:49.658Z,1003.54
2023-02-09T02:21:49.619Z,1003.50
2023-02-09T02:22:49.627Z,1003.51
2023-02-09T02:23:49.651Z,1003.54
2023-02-09T02:24:49.641Z,1003.50
2023-02-09T02:25:49.779Z,1003.52
2023-02-09T02:26:49.585Z,1003.55
2023-02-09T02:27:49.580Z,1003.57
2023-02-09T02:28:49.556Z,1003.61
2023-02-09T02:29:49.580Z,1003.65
2023-02-09T02:30:49.935Z,1003.57
2023-02-09T02:31:49.603Z,1003.63
2023-02-09T02:32:49.561Z,1003.61
2023-02-09T02:33:49.492Z,1003.61
2023-02-09T02:34:49.531Z,1003.61
2023-02-09T02:35:49.486Z,1003.60
2023-02-09T02:36:49.508Z,1003.62
2023-02-09T02:37:49.525Z,1003.67
2023-02-09T02:38:49.450Z,1003.63
2023-02-09T02:39:49.453Z,1003.63
2023-02-09T02:40:49.467Z,1003.61
2023-02-09T02:41:49.454Z,1003.61
2023-02-09T02:42:49.418Z,1003.55
2023-02-09T02:43:49.398Z,1003.53
2023-02-09T02:44:49.395Z,1003.56
2023-02-09T02:45:49.462Z,1003.46
2023-02-09T02:46:49.389Z,1003.58
2023-02-09T02:47:49.397Z,1003.61
2023-02-09T02:48:49.360Z,1003.63
2023-02-09T02:49:49.349Z,1003.61
2023-02-09T02:50:49.453Z,1003.61
2023-02-09T02:51:49.388Z,1003.60
2023-02-09T02:52:49.336Z,1003.60
2023-02-09T02:53:49.308Z,1003.70
2023-02-09T02:54:49.388Z,1003.57
2023-02-09T02:55:49.300Z,1003.55
2023-02-09T02:56:49.284Z,1003.59
2023-02-09T02:57:49.315Z,1003.55
2023-02-09T02:58:49.286Z,1003.58
2023-02-09T02:59:49.277Z,1003.56
2023-02-09T03:00:49.306Z,1003.57
2023-02-09T03:01:49.269Z,1003.57
2023-02-09T03:02:49.317Z,1003.55
2023-02-09T03:03:49.213Z,1003.54
2023-02-09T03:04:49.218Z,1003.53
2023-02-09T03:05:49.202Z,1003.52
2023-02-09T03:06:49.200Z,1003.54
2023-02-09T03:07:49.194Z,1003.57
2023-02-09T03:08:49.233Z,1003.54
2023-02-09T03:09:49.188Z,1003.58
2023-02-09T03:10:49.133Z,1003.55
2023-02-09T03:11:49.202Z,1003.56
2023-02-09T03:12:49.130Z,1003.55
2023-02-09T03:13:49.130Z,1003.54
2023-02-09T03:14:49.111Z,1003.56
2023-02-09T03:15:49.277Z,1003.52
2023-02-09T03:16:49.080Z,1003.57
2023-02-09T03:17:49.250Z,1003.61
2023-02-09T03:18:49.070Z,1003.59
2023-02-09T03:19:49.049Z,1003.65
2023-02-09T03:20:49.049Z,1003.61
2023-02-09T03:21:49.025Z,1003.56
2023-02-09T03:22:49.224Z,1003.63
2023-02-09T03:23:49.037Z,1003.60
2023-02-09T03:24:49.007Z,1003.59
2023-02-09T03:25:49.007Z,1003.60
2023-02-09T03:26:48.974Z,1003.52
2023-02-09T03:27:49.003Z,1003.55
2023-02-09T03:28:48.955Z,1003.57
2023-02-09T03:29:48.942Z,1003.51
2023-02-09T03:30:49.054Z,1003.57
2023-02-09T03:31:49.019Z,1003.56
2023-02-09T03:32:48.928Z,1003.63
2023-02-09T03:33:48.941Z,1003.56
2023-02-09T03:34:48.897Z,1003.55
2023-02-09T03:35:48.913Z,1003.54
2023-02-09T03:36:48.935Z,1003.54
2023-02-09T03:37:48.880Z,1003.57
2023-02-09T03:38:48.857Z,1003.57
2023-02-09T03:39:48.964Z,1003.52
2023-02-09T03:40:48.872Z,1003.52
2023-02-09T03:41:48.820Z,1003.59
2023-02-09T03:42:49.006Z,1003.60
2023-02-09T03:43:48.808Z,1003.66
2023-02-09T03:44:48.831Z,1003.67
2023-02-09T03:45:48.831Z,1003.59
2023-02-09T03:46:48.911Z,1003.64
2023-02-09T03:47:48.824Z,1003.60
2023-02-09T03:48:48.784Z,1003.58
2023-02-09T03:49:48.855Z,1003.60
2023-02-09T03:50:48.735Z,1003.61
2023-02-09T03:51:48.725Z,1003.63
2023-02-09T03:52:48.730Z,1003.62
2023-02-09T03:53:48.925Z,1003.62
2023-02-09T03:54:48.717Z,1003.58
2023-02-09T03:55:48.680Z,1003.65
2023-02-09T03:56:48.706Z,1003.58
2023-02-09T03:57:48.681Z,1003.58
2023-02-09T03:58:48.643Z,1003.61
2023-02-09T03:59:48.647Z,1003.54
2023-02-09T04:00:48.644Z,1003.61
2023-02-09T04:01:48.634Z,1003.54
2023-02-09T04:02:48.776Z,1003.56
2023-02-09T04:03:48.609Z,1003.49
2023-02-09T04:04:48.740Z,1003.54
2023-02-09T04:05:48.603Z,1003.59
2023-02-09T04:06:48.601Z,1003.57
2023-02-09T04:07:48.565Z,1003.48
2023-02-09T04:08:48.545Z,1003.51
2023-02-09T04:09:48.548Z,1003.56
2023-02-09T04:10:48.544Z,1003.54
2023-02-09T04:11:48.510Z,1003.60
2023-02-09T04:12:48.536Z,1003.61
2023-02-09T04:13:48.513Z,1003.54
2023-02-09T04:14:48.484Z,1003.49
2023-02-09T04:15:48.554Z,1003.54
2023-02-09T04:16:48.474Z,1003.53
2023-02-09T04:17:50.722Z,1003.58
2023-02-09T04:18:48.444Z,1003.61
2023-02-09T04:19:48.631Z,1003.61
2023-02-09T04:20:48.525Z,1003.60
2023-02-09T04:21:48.421Z,1003.60
2023-02-09T04:22:48.445Z,1003.65
2023-02-09T04:23:48.426Z,1003.62
2023-02-09T04:24:48.428Z,1003.67
2023-02-09T04:25:48.423Z,1003.63
2023-02-09T04:26:48.413Z,1003.69
2023-02-09T04:27:48.378Z,1003.72
2023-02-09T04:28:48.350Z,1003.68
2023-02-09T04:29:48.413Z,1003.72
2023-02-09T04:30:48.690Z,1003.69
2023-02-09T04:31:48.378Z,1003.76
2023-02-09T04:32:48.522Z,1003.71
2023-02-09T04:33:48.307Z,1003.70
2023-02-09T04:34:48.280Z,1003.74
2023-02-09T04:35:48.301Z,1003.73
2023-02-09T04:36:48.267Z,1003.69
2023-02-09T04:37:48.265Z,1003.69
2023-02-09T04:38:48.300Z,1003.77
2023-02-09T04:39:48.223Z,1003.72
2023-02-09T04:40:48.227Z,1003.78
2023-02-09T04:41:48.224Z,1003.76
2023-02-09T04:42:48.210Z,1003.74
2023-02-09T04:43:48.297Z,1003.76
2023-02-09T04:44:48.239Z,1003.76
2023-02-09T04:45:48.258Z,1003.76
2023-02-09T04:46:48.230Z,1003.81
2023-02-09T04:47:48.230Z,1003.78
2023-02-09T04:48:48.256Z,1003.73
2023-02-09T04:49:48.182Z,1003.72
2023-02-09T04:50:48.149Z,1003.73
2023-02-09T04:51:48.142Z,1003.73
2023-02-09T04:52:48.140Z,1003.74
2023-02-09T04:53:48.134Z,1003.69
2023-02-09T04:54:48.105Z,1003.75
2023-02-09T04:55:48.108Z,1003.70
2023-02-09T04:56:48.193Z,1003.68
2023-02-09T04:57:48.090Z,1003.68
2023-02-09T04:58:48.098Z,1003.75
2023-02-09T04:59:48.078Z,1003.71
2023-02-09T05:00:48.377Z,1003.71
2023-02-09T05:01:48.018Z,1003.68
2023-02-09T05:02:48.017Z,1003.73
2023-02-09T05:03:48.111Z,1003.72
2023-02-09T05:04:47.999Z,1003.70
2023-02-09T05:05:48.079Z,1003.68
2023-02-09T05:06:48.007Z,1003.71
2023-02-09T05:07:48.021Z,1003.69
2023-02-09T05:08:47.953Z,1003.65
2023-02-09T05:09:47.928Z,1003.64
2023-02-09T05:10:48.108Z,1003.60
2023-02-09T05:11:47.968Z,1003.58
2023-02-09T05:12:47.923Z,1003.62
2023-02-09T05:13:47.958Z,1003.59
2023-02-09T05:14:47.911Z,1003.60
2023-02-09T05:15:47.944Z,1003.59
2023-02-09T05:16:48.020Z,1003.60
2023-02-09T05:17:47.921Z,1003.58
2023-02-09T05:18:47.853Z,1003.61
2023-02-09T05:19:48.032Z,1003.58
2023-02-09T05:20:48.103Z,1003.66
2023-02-09T05:21:47.882Z,1003.55
2023-02-09T05:22:50.046Z,1003.58
2023-02-09T05:23:47.801Z,1003.64
2023-02-09T05:24:47.781Z,1003.60
2023-02-09T05:25:47.798Z,1003.63
2023-02-09T05:26:47.753Z,1003.57
2023-02-09T05:27:47.773Z,1003.60
2023-02-09T05:28:47.801Z,1003.58
2023-02-09T05:29:47.756Z,1003.59
2023-02-09T05:30:48.241Z,1003.61
2023-02-09T05:31:47.768Z,1003.63
2023-02-09T05:32:47.764Z,1003.54
2023-02-09T05:33:47.708Z,1003.60
2023-02-09T05:34:47.738Z,1003.60
2023-02-09T05:35:47.687Z,1003.65
2023-02-09T05:36:47.704Z,1003.60
2023-02-09T05:37:47.760Z,1003.54
2023-02-09T05:38:47.677Z,1003.65
2023-02-09T05:39:47.659Z,1003.62
2023-02-09T05:40:47.967Z,1003.64
2023-02-09T05:41:47.693Z,1003.61
2023-02-09T05:42:47.659Z,1003.66
2023-02-09T05:43:47.632Z,1003.66
2023-02-09T05:44:47.574Z,1003.67
2023-02-09T05:45:47.736Z,1003.68
2023-02-09T05:46:47.589Z,1003.77
2023-02-09T05:47:47.577Z,1003.68
2023-02-09T05:48:47.542Z,1003.72
2023-02-09T05:49:47.644Z,1003.71
2023-02-09T05:50:47.864Z,1003.75
2023-02-09T05:51:47.535Z,1003.73
2023-02-09T05:52:47.536Z,1003.72
2023-02-09T05:53:47.498Z,1003.66
2023-02-09T05:54:47.482Z,1003.70
2023-02-09T05:55:47.517Z,1003.71
2023-02-09T05:56:47.461Z,1003.75
2023-02-09T05:57:47.589Z,1003.71
2023-02-09T05:58:47.444Z,1003.69
2023-02-09T05:59:47.447Z,1003.75
2023-02-09T06:00:47.793Z,1003.69
2023-02-09T06:01:47.478Z,1003.69
2023-02-09T06:02:47.533Z,1003.72
2023-02-09T06:03:47.432Z,1003.68
2023-02-09T06:04:47.376Z,1003.75
2023-02-09T06:05:47.494Z,1003.77
2023-02-09T06:06:47.392Z,1003.82
2023-02-09T06:07:47.379Z,1003.80
2023-02-09T06:08:47.337Z,1003.83
2023-02-09T06:09:47.454Z,1003.89
2023-02-09T06:10:47.686Z,1003.94
2023-02-09T06:11:47.301Z,1003.87
2023-02-09T06:12:47.377Z,1003.94
2023-02-09T06:13:47.285Z,1003.92
2023-02-09T06:14:47.310Z,1003.93
2023-02-09T06:15:47.410Z,1003.93
2023-02-09T06:16:47.273Z,1004.03
2023-02-09T06:17:47.289Z,1004.00
2023-02-09T06:18:47.249Z,1004.04
2023-02-09T06:19:47.236Z,1003.93
2023-02-09T06:20:47.490Z,1004.03
2023-02-09T06:21:47.317Z,1003.98
2023-02-09T06:22:47.215Z,1003.96
2023-02-09T06:23:47.196Z,1004.04
2023-02-09T06:24:47.190Z,1003.99
2023-02-09T06:25:47.160Z,1004.03
2023-02-09T06:26:47.190Z,1004.02
2023-02-09T06:27:47.174Z,1004.11
2023-02-09T06:28:47.127Z,1004.09
2023-02-09T06:29:47.224Z,1004.14
2023-02-09T06:30:47.759Z,1004.11
2023-02-09T06:31:47.256Z,1004.11
2023-02-09T06:32:47.119Z,1004.14
2023-02-09T06:33:47.113Z,1004.11
2023-02-09T06:34:47.094Z,1004.18
2023-02-09T06:35:47.117Z,1004.17
2023-02-09T06:36:47.077Z,1004.20
2023-02-09T06:37:47.076Z,1004.19
2023-02-09T06:38:47.042Z,1004.16
2023-02-09T06:39:47.035Z,1004.20
2023-02-09T06:40:47.399Z,1004.29
2023-02-09T06:41:47.030Z,1004.24
2023-02-09T06:42:47.048Z,1004.23
2023-02-09T06:43:47.041Z,1004.23
2023-02-09T06:44:46.986Z,1004.25
2023-02-09T06:45:46.983Z,1004.27
2023-02-09T06:46:46.955Z,1004.22
2023-02-09T06:47:47.027Z,1004.20
2023-02-09T06:48:46.964Z,1004.27
2023-02-09T06:49:46.967Z,1004.28
2023-02-09T06:50:47.282Z,1004.28
2023-02-09T06:51:46.936Z,1004.21
2023-02-09T06:52:47.037Z,1004.29
2023-02-09T06:53:46.894Z,1004.27
2023-02-09T06:54:46.872Z,1004.28
2023-02-09T06:55:46.888Z,1004.27
2023-02-09T06:56:46.878Z,1004.26
2023-02-09T06:57:46.899Z,1004.29
2023-02-09T06:58:46.872Z,1004.28
2023-02-09T06:59:46.814Z,1004.35
2023-02-09T07:00:47.302Z,1004.36
2023-02-09T07:01:46.831Z,1004.34
2023-02-09T07:02:46.853Z,1004.33
2023-02-09T07:03:46.776Z,1004.38
2023-02-09T07:04:46.779Z,1004.36
2023-02-09T07:05:46.751Z,1004.39
2023-02-09T07:06:46.761Z,1004.41
2023-02-09T07:07:46.750Z,1004.38
2023-02-09T07:08:46.738Z,1004.42
2023-02-09T07:09:46.719Z,1004.41
2023-02-09T07:10:47.028Z,1004.40
2023-02-09T07:11:46.736Z,1004.40
2023-02-09T07:12:46.717Z,1004.29
2023-02-09T07:13:46.788Z,1004.29
2023-02-09T07:14:46.714Z,1004.29
2023-02-09T07:15:46.710Z,1004.32
2023-02-09T07:16:46.664Z,1004.29
2023-02-09T07:17:46.681Z,1004.32
2023-02-09T07:18:46.631Z,1004.29
2023-02-09T07:19:46.706Z,1004.29
2023-02-09T07:20:46.991Z,1004.30
2023-02-09T07:21:46.695Z,1004.29
2023-02-09T07:22:46.635Z,1004.28
2023-02-09T07:23:46.641Z,1004.35
2023-02-09T07:24:46.590Z,1004.35
2023-02-09T07:25:46.559Z,1004.33
2023-02-09T07:26:46.614Z,1004.38
2023-02-09T07:27:46.580Z,1004.41
2023-02-09T07:28:46.528Z,1004.34
2023-02-09T07:29:46.538Z,1004.35
2023-02-09T07:30:46.898Z,1004.31
2023-02-09T07:31:46.624Z,1004.35
2023-02-09T07:32:46.676Z,1004.44
2023-02-09T07:33:46.507Z,1004.44
2023-02-09T07:34:46.506Z,1004.43
2023-02-09T07:35:46.539Z,1004.37
2023-02-09T07:36:47.890Z,1004.41
2023-02-09T07:37:46.430Z,1004.44
2023-02-09T07:38:46.449Z,1004.39
2023-02-09T07:39:46.456Z,1004.40
2023-02-09T07:40:47.016Z,1004.37
2023-02-09T07:41:46.493Z,1004.38
2023-02-09T07:42:46.465Z,1004.39
2023-02-09T07:43:46.455Z,1004.45
2023-02-09T07:44:46.410Z,1004.42
2023-02-09T07:45:46.869Z,1004.42
2023-02-09T07:46:46.558Z,1004.38
2023-02-09T07:47:46.382Z,1004.37
2023-02-09T07:48:46.380Z,1004.40
2023-02-09T07:49:46.360Z,1004.40
2023-02-09T07:50:46.591Z,1004.33
2023-02-09T07:51:46.344Z,1004.32
2023-02-09T07:52:46.298Z,1004.37
2023-02-09T07:53:46.278Z,1004.39
2023-02-09T07:54:46.292Z,1004.37
2023-02-09T07:55:46.582Z,1004.39
2023-02-09T07:56:46.296Z,1004.33
2023-02-09T07:57:46.254Z,1004.40
2023-02-09T07:58:46.216Z,1004.38
2023-02-09T07:59:46.225Z,1004.42
2023-02-09T08:00:46.254Z,1004.46
2023-02-09T08:01:46.230Z,1004.41
2023-02-09T08:02:46.209Z,1004.38
2023-02-09T08:03:46.174Z,1004.42
2023-02-09T08:04:46.230Z,1004.48
2023-02-09T08:05:46.482Z,1004.41
2023-02-09T08:06:46.154Z,1004.39
2023-02-09T08:07:46.135Z,1004.39
2023-02-09T08:08:46.339Z,1004.39
2023-02-09T08:09:46.116Z,1004.38
2023-02-09T08:10:46.139Z,1004.41
2023-02-09T08:11:46.266Z,1004.39
2023-02-09T08:12:46.102Z,1004.46
2023-02-09T08:13:46.068Z,1004.36
2023-02-09T08:14:46.216Z,1004.44
2023-02-09T08:15:46.477Z,1004.40
2023-02-09T08:16:46.087Z,1004.44
2023-02-09T08:17:46.067Z,1004.47
2023-02-09T08:18:46.030Z,1004.39
2023-02-09T08:19:46.013Z,1004.44
2023-02-09T08:20:46.001Z,1004.43
2023-02-09T08:21:46.034Z,1004.47
2023-02-09T08:22:46.023Z,1004.44
2023-02-09T08:23:46.008Z,1004.39
2023-02-09T08:24:46.012Z,1004.41
2023-02-09T08:25:46.540Z,1004.42
2023-02-09T08:26:45.957Z,1004.43
2023-02-09T08:27:45.956Z,1004.47
2023-02-09T08:28:46.047Z,1004.43
2023-02-09T08:29:48.568Z,1004.43
2023-02-09T08:30:45.927Z,1004.45
2023-02-09T08:31:46.049Z,1004.42
2023-02-09T08:32:45.903Z,1004.40
2023-02-09T08:33:45.865Z,1004.47
2023-02-09T08:34:45.862Z,1004.47
2023-02-09T08:35:46.244Z,1004.40
2023-02-09T08:36:45.820Z,1004.43
2023-02-09T08:37:45.837Z,1004.43
2023-02-09T08:38:45.859Z,1004.42
2023-02-09T08:39:45.861Z,1004.43
2023-02-09T08:40:45.814Z,1004.40
2023-02-09T08:41:46.503Z,1004.41
2023-02-09T08:42:45.794Z,1004.41
2023-02-09T08:43:45.785Z,1004.40
2023-02-09T08:44:45.837Z,1004.39
2023-02-09T08:45:46.277Z,1004.42
2023-02-09T08:46:45.935Z,1004.42
2023-02-09T08:47:45.722Z,1004.43
2023-02-09T08:48:45.736Z,1004.40
2023-02-09T08:49:45.748Z,1004.41
2023-02-09T08:50:45.707Z,1004.42
2023-02-09T08:51:45.698Z,1004.42
2023-02-09T08:52:45.676Z,1004.44
2023-02-09T08:53:45.669Z,1004.34
2023-02-09T08:54:45.651Z,1004.47
2023-02-09T08:55:45.880Z,1004.51
2023-02-09T08:56:45.646Z,1004.46
2023-02-09T08:57:45.626Z,1004.46
2023-02-09T08:58:45.677Z,1004.54
2023-02-09T08:59:45.634Z,1004.51
2023-02-09T09:00:45.693Z,1004.49
2023-02-09T09:01:45.593Z,1004.58
2023-02-09T09:02:45.584Z,1004.51
2023-02-09T09:03:45.636Z,1004.51
2023-02-09T09:04:45.535Z,1004.56
2023-02-09T09:05:45.939Z,1004.57
2023-02-09T09:06:47.190Z,1004.54
2023-02-09T09:07:45.562Z,1004.54
2023-02-09T09:08:45.513Z,1004.51
2023-02-09T09:09:45.535Z,1004.49
2023-02-09T09:10:45.473Z,1004.49
2023-02-09T09:11:45.472Z,1004.47
2023-02-09T09:12:45.499Z,1004.47
2023-02-09T09:13:45.482Z,1004.50
2023-02-09T09:14:45.501Z,1004.46
2023-02-09T09:15:45.911Z,1004.43
2023-02-09T09:16:45.671Z,1004.42
2023-02-09T09:17:45.539Z,1004.43
2023-02-09T09:18:45.472Z,1004.45
2023-02-09T09:19:45.383Z,1004.45
2023-02-09T09:20:45.399Z,1004.52
2023-02-09T09:21:45.375Z,1004.48
2023-02-09T09:22:45.357Z,1004.44
2023-02-09T09:23:45.343Z,1004.44
2023-02-09T09:24:45.351Z,1004.48
2023-02-09T09:25:45.765Z,1004.45
2023-02-09T09:26:45.351Z,1004.50
2023-02-09T09:27:45.321Z,1004.43
2023-02-09T09:28:45.285Z,1004.51
2023-02-09T09:29:45.466Z,1004.50
2023-02-09T09:30:45.348Z,1004.53
2023-02-09T09:31:45.317Z,1004.48
2023-02-09T09:32:45.322Z,1004.52
2023-02-09T09:33:45.248Z,1004.55
2023-02-09T09:34:45.211Z,1004.58
2023-02-09T09:35:45.714Z,1004.65
2023-02-09T09:36:45.494Z,1004.57
2023-02-09T09:37:45.209Z,1004.59
2023-02-09T09:38:47.415Z,1004.62
2023-02-09T09:39:50.077Z,1004.63
2023-02-09T09:40:59.127Z,1004.59
2023-02-09T09:41:45.134Z,1004.72
2023-02-09T09:42:45.173Z,1004.68
2023-02-09T09:43:45.133Z,1004.70
2023-02-09T09:44:47.231Z,1004.69
2023-02-09T09:45:45.858Z,1004.77
2023-02-09T09:46:46.081Z,1004.79
2023-02-09T09:47:48.179Z,1004.77
2023-02-09T09:51:29.149Z,1004.83
2023-02-09T09:51:45.034Z,1004.76
2023-02-09T09:52:45.101Z,1004.84
2023-02-09T09:53:45.017Z,1004.86
2023-02-09T09:54:44.994Z,1004.78
2023-02-09T09:55:44.987Z,1004.78
2023-02-09T09:56:48.792Z,1004.78
2023-02-09T09:57:56.921Z,1004.75
2023-02-09T09:58:44.963Z,1004.83
2023-02-09T09:59:44.958Z,1004.81
2023-02-09T10:00:44.957Z,1004.84
2023-02-09T10:01:44.925Z,1004.79
2023-02-09T10:02:45.021Z,1004.74
2023-02-09T10:03:45.071Z,1004.79
2023-02-09T10:04:44.919Z,1004.79
2023-02-09T10:05:49.491Z,1004.83
2023-02-09T10:06:45.121Z,1004.88
2023-02-09T10:07:52.431Z,1004.88
2023-02-09T10:08:44.841Z,1004.79
2023-02-09T10:09:44.836Z,1004.83
2023-02-09T10:10:45.297Z,1004.94
2023-02-09T10:11:44.811Z,1004.89
2023-02-09T10:12:44.996Z,1004.87
2023-02-09T10:13:44.814Z,1004.90
2023-02-09T10:14:50.174Z,1004.95
2023-02-09T10:15:46.267Z,1004.89
2023-02-09T10:16:45.826Z,1004.93
2023-02-09T10:17:44.788Z,1004.89
2023-02-09T10:18:44.805Z,1004.86
2023-02-09T10:19:44.732Z,1004.90
2023-02-09T10:20:44.722Z,1004.90
2023-02-09T10:21:44.970Z,1005.01
2023-02-09T10:22:44.715Z,1004.96
2023-02-09T10:23:52.264Z,1005.04
2023-02-09T10:24:44.677Z,1005.00
2023-02-09T10:25:45.012Z,1004.98
2023-02-09T10:26:44.719Z,1004.92
2023-02-09T10:27:44.635Z,1004.99
2023-02-09T10:28:44.646Z,1005.05
2023-02-09T10:29:44.627Z,1005.00
2023-02-09T10:30:44.710Z,1004.90
2023-02-09T10:31:44.893Z,1004.92
2023-02-09T10:32:51.589Z,1004.93
2023-02-09T10:33:45.590Z,1004.90
2023-02-09T10:34:44.642Z,1004.88
2023-02-09T10:35:45.048Z,1004.92
2023-02-09T10:36:44.543Z,1004.88
2023-02-09T10:37:44.572Z,1004.84
2023-02-09T10:38:44.563Z,1004.89
2023-02-09T10:39:44.519Z,1004.81
2023-02-09T10:40:44.657Z,1004.86
2023-02-09T10:44:02.439Z,1004.78
2023-02-09T10:45:02.915Z,1004.80
2023-02-09T10:46:02.346Z,1004.81
2023-02-09T10:47:02.325Z,1004.77
2023-02-09T10:48:02.320Z,1004.83
2023-02-09T10:49:02.283Z,1004.82
2023-02-09T10:50:02.267Z,1004.92
2023-02-09T10:51:02.276Z,1004.89
2023-02-09T10:52:02.248Z,1004.89
2023-02-09T10:53:03.452Z,1004.92
2023-02-09T10:56:30.948Z,1004.81
2023-02-09T10:57:30.958Z,1004.75
2023-02-09T10:58:30.933Z,1004.83
2023-02-09T11:02:25.256Z,1004.79
2023-02-09T11:03:25.460Z,1004.76
2023-02-09T11:04:25.299Z,1004.75
2023-02-09T11:05:32.284Z,1004.74
2023-02-09T11:06:25.141Z,1004.73
2023-02-09T11:07:25.228Z,1004.69
2023-02-09T11:08:25.116Z,1004.67
2023-02-09T11:09:25.190Z,1004.69
2023-02-09T11:10:25.097Z,1004.73
2023-02-09T11:11:33.242Z,1004.71
2023-02-09T11:12:25.207Z,1004.65
2023-02-09T11:13:25.056Z,1004.63
2023-02-09T11:14:25.054Z,1004.63
2023-02-09T11:15:25.043Z,1004.61
2023-02-09T11:16:25.083Z,1004.64
2023-02-09T11:17:25.651Z,1004.58
2023-02-09T11:18:25.016Z,1004.58
2023-02-09T11:19:25.203Z,1004.60
2023-02-09T11:20:39.668Z,1004.55
2023-02-09T11:21:26.069Z,1004.49
2023-02-09T11:22:28.988Z,1004.51
2023-02-09T11:23:24.946Z,1004.53
2023-02-09T11:24:26.314Z,1004.53
2023-02-09T11:25:24.946Z,1004.52
2023-02-09T11:26:32.301Z,1004.52
2023-02-09T11:27:24.927Z,1004.55
2023-02-09T11:28:24.980Z,1004.53
2023-02-09T11:29:24.922Z,1004.50
2023-02-09T11:30:31.959Z,1004.48
2023-02-09T11:31:26.137Z,1004.42
2023-02-09T11:32:25.117Z,1004.44
2023-02-09T11:33:32.699Z,1004.35
2023-02-09T11:34:26.272Z,1004.37
2023-02-09T11:35:24.851Z,1004.42
2023-02-09T11:36:24.930Z,1004.39
2023-02-09T11:37:24.823Z,1004.35
2023-02-09T11:38:24.927Z,1004.31
2023-02-09T11:39:24.811Z,1004.37
2023-02-09T11:40:25.166Z,1004.31
2023-02-09T11:41:36.547Z,1004.29
2023-02-09T11:42:24.818Z,1004.38
2023-02-09T11:43:24.741Z,1004.29
2023-02-09T11:44:24.729Z,1004.32
2023-02-09T11:45:24.726Z,1004.33
2023-02-09T11:46:24.783Z,1004.22
2023-02-09T11:47:24.872Z,1004.24
2023-02-09T11:48:24.684Z,1004.20
2023-02-09T11:49:24.790Z,1004.23
2023-02-09T11:50:25.592Z,1004.14
2023-02-09T11:51:24.666Z,1004.14
2023-02-09T11:52:24.732Z,1004.15
2023-02-09T11:53:24.624Z,1004.10
2023-02-09T11:54:24.613Z,1004.13
2023-02-09T11:55:24.609Z,1004.05
2023-02-09T11:56:24.659Z,1004.05
2023-02-09T11:57:24.617Z,1004.07
2023-02-09T11:58:31.270Z,1004.02
2023-02-09T11:59:25.145Z,1004.01
2023-02-09T12:00:24.555Z,1003.95
2023-02-09T12:01:24.553Z,1003.97
2023-02-09T12:02:24.620Z,1003.97
2023-02-09T12:03:24.527Z,1003.92
2023-02-09T12:04:24.527Z,1003.85
2023-02-09T12:05:24.550Z,1003.84
2023-02-09T12:06:24.542Z,1003.85
2023-02-09T12:07:28.650Z,1003.84
2023-02-09T12:08:24.629Z,1003.82
2023-02-09T12:09:24.557Z,1003.84
2023-02-09T12:10:24.440Z,1003.82
2023-02-09T12:11:24.444Z,1003.81
2023-02-09T12:12:24.440Z,1003.75
2023-02-09T12:13:24.436Z,1003.76
2023-02-09T12:14:24.671Z,1003.71
2023-02-09T12:15:24.388Z,1003.68